Time;durP1;ratioP1;P1;durP2;ratioP2;P2;SDS_P1;SDS_P2;PMS_P1;PMS_P2;Temp;Humidity;BMP_temperature;BMP_pressure;BME280_temperature;BME280_humidity;BME280_pressure;Samples;Min_cycle;Max_cycle;Signal;HPM_P1;HPM_P2
2021/07/28 00:00:09;;;;;;;19.83;9.73;;;;;;;15.15;89.33;101110.53;5046398;28;20478;-69
2021/07/28 00:02:34;;;;;;;13.30;8.57;;;;;;;15.14;88.65;101103.53;5033900;28;20110;-69
2021/07/28 00:04:59;;;;;;;13.40;9.32;;;;;;;15.08;89.25;101094.13;5044809;28;20093;-70
2021/07/28 00:07:24;;;;;;;15.40;9.18;;;;;;;15.09;88.90;101093.16;5034497;28;20030;-69
2021/07/28 00:09:50;;;;;;;16.33;9.02;;;;;;;15.09;88.72;101087.88;5047006;28;20028;-69
2021/07/28 00:12:15;;;;;;;13.27;8.90;;;;;;;15.06;88.76;101092.44;5046479;28;20036;-69
2021/07/28 00:14:41;;;;;;;13.88;9.20;;;;;;;15.05;88.96;101077.56;5046963;28;20024;-69
2021/07/28 00:17:09;;;;;;;12.00;8.40;;;;;;;15.03;88.79;101079.41;5044829;28;20021;-69
2021/07/28 00:19:51;;;;;;;16.75;9.55;;;;;;;15.03;88.95;101079.41;5045914;28;20025;-69
2021/07/28 00:25:00;;;;;;;;;;;;;;;15.01;88.55;101079.50;5046170;28;20082;-69
2021/07/28 00:27:26;;;;;;;16.03;8.80;;;;;;;15.01;88.60;101082.97;5030619;28;19913;-68
2021/07/28 00:29:51;;;;;;;13.85;8.55;;;;;;;15.00;88.64;101077.78;5033798;28;20407;-69
2021/07/28 00:32:16;;;;;;;13.32;8.50;;;;;;;14.99;88.91;101079.53;5040450;28;20010;-69
2021/07/28 00:34:42;;;;;;;17.85;9.38;;;;;;;15.00;88.37;101075.97;5027221;28;20483;-69
2021/07/28 00:37:07;;;;;;;12.73;8.45;;;;;;;15.02;88.78;101086.50;5027556;28;20017;-69
2021/07/28 00:39:32;;;;;;;16.27;9.45;;;;;;;15.00;88.85;101075.13;5041081;28;20111;-70
2021/07/28 00:41:58;;;;;;;17.90;9.60;;;;;;;15.00;88.88;101081.25;5026644;28;20025;-69
2021/07/28 00:44:23;;;;;;;15.88;9.43;;;;;;;15.00;89.14;101069.84;5026855;28;20029;-70
2021/07/28 00:46:48;;;;;;;17.33;9.95;;;;;;;14.98;88.84;101071.69;5037596;28;20021;-69
2021/07/28 00:49:14;;;;;;;17.05;10.50;;;;;;;14.94;89.14;101068.34;5030166;28;20029;-69
2021/07/28 00:51:39;;;;;;;14.23;10.10;;;;;;;14.96;89.08;101065.66;5029827;28;20037;-69
2021/07/28 00:54:05;;;;;;;19.27;11.02;;;;;;;14.97;88.94;101059.41;5029955;28;20438;-68
2021/07/28 00:56:30;;;;;;;17.10;10.57;;;;;;;14.97;88.72;101062.06;5039697;28;20055;-69
2021/07/28 00:58:56;;;;;;;16.88;11.88;;;;;;;14.97;88.95;101062.06;5041519;28;20025;-70
2021/07/28 01:01:21;;;;;;;16.58;10.85;;;;;;;14.97;88.61;101060.28;5033586;28;20116;-69
2021/07/28 01:03:47;;;;;;;21.13;12.25;;;;;;;14.92;89.26;101059.66;5039410;28;20029;-68
2021/07/28 01:06:12;;;;;;;22.33;12.68;;;;;;;14.90;89.36;101050.09;5046130;28;20528;-68
2021/07/28 01:08:37;;;;;;;20.02;12.80;;;;;;;14.89;89.76;101046.59;5042114;28;20482;-69
2021/07/28 01:11:04;;;;;;;22.55;13.93;;;;;;;14.87;90.10;101050.22;5046035;28;20025;-69
2021/07/28 01:13:31;;;;;;;25.00;14.07;;;;;;;14.83;90.42;101049.50;5038199;28;20273;-69
2021/07/28 01:16:08;;;;;;;22.23;13.88;;;;;;;14.84;90.32;101044.16;5032130;28;20170;-70
2021/07/28 01:18:34;;;;;;;22.52;13.60;;;;;;;14.88;90.10;101042.22;5046944;28;20112;-68
2021/07/28 01:20:59;;;;;;;24.45;14.27;;;;;;;14.89;90.46;101043.94;5031323;28;20060;-69
2021/07/28 01:23:26;;;;;;;20.58;14.27;;;;;;;14.89;90.59;101049.22;5040270;28;20425;-69
2021/07/28 01:25:53;;;;;;;25.25;13.93;;;;;;;14.87;90.32;101037.88;5039435;28;20325;-69
2021/07/28 01:28:22;;;;;;;22.73;13.48;;;;;;;14.91;90.43;101033.28;5034408;28;20029;-69
2021/07/28 01:30:59;;;;;;;21.77;13.05;;;;;;;14.90;90.34;101036.91;5032566;28;20489;-70
2021/07/28 01:33:25;;;;;;;24.42;15.05;;;;;;;14.89;90.38;101037.81;5037789;28;20025;-69
2021/07/28 01:35:51;;;;;;;21.85;13.75;;;;;;;14.89;90.28;101036.03;5044625;28;20037;-69
2021/07/28 01:38:22;;;;;;;25.55;14.65;;;;;;;14.87;90.94;101032.59;5043747;28;20461;-69
2021/07/28 01:40:47;;;;;;;23.02;13.80;;;;;;;14.87;91.11;101032.59;5050182;28;20108;-69
2021/07/28 01:43:14;;;;;;;22.95;14.43;;;;;;;14.87;91.21;101023.81;5049029;28;20085;-69
2021/07/28 01:45:40;;;;;;;22.98;13.13;;;;;;;14.90;91.01;101023.69;5046977;28;20063;-70
2021/07/28 01:48:06;;;;;;;23.85;13.38;;;;;;;14.91;90.72;101020.09;5049234;28;20017;-68
2021/07/28 01:50:31;;;;;;;25.58;13.73;;;;;;;14.88;90.58;101023.75;5035376;28;20040;-69
2021/07/28 01:53:01;;;;;;;27.27;13.57;;;;;;;14.88;90.80;101023.75;5044470;28;20188;-69
2021/07/28 01:55:26;;;;;;;22.52;13.60;;;;;;;14.92;90.47;101019.16;5042422;28;20059;-68
2021/07/28 01:57:52;;;;;;;19.98;11.77;;;;;;;14.90;90.92;101016.63;5046781;28;20037;-68
2021/07/28 02:00:18;;;;;;;23.25;13.40;;;;;;;14.89;91.08;101014.06;5040569;28;20379;-69
2021/07/28 02:02:43;;;;;;;27.63;14.30;;;;;;;14.88;91.17;101018.47;5045369;28;20051;-70
2021/07/28 02:05:09;;;;;;;24.58;14.23;;;;;;;14.89;91.40;101019.34;5050417;28;20033;-69
2021/07/28 02:07:34;;;;;;;20.67;13.07;;;;;;;14.89;91.36;101022.81;5049397;28;20029;-70
2021/07/28 02:09:59;;;;;;;25.45;14.73;;;;;;;14.88;91.60;101013.19;5049595;28;20016;-69
2021/07/28 02:12:25;;;;;;;24.08;14.60;;;;;;;14.89;91.60;101014.06;5048889;28;20029;-68
2021/07/28 02:14:50;;;;;;;25.88;15.23;;;;;;;14.87;91.72;101016.75;5034512;28;20021;-69
2021/07/28 02:17:16;;;;;;;28.15;15.43;;;;;;;14.85;91.57;101008.91;5046954;28;20017;-69
2021/07/28 02:19:41;;;;;;;29.25;15.50;;;;;;;14.88;91.76;101015.81;5048633;28;20029;-70
2021/07/28 02:22:07;;;;;;;29.75;15.93;;;;;;;14.93;91.82;101008.53;5032318;28;20040;-69
2021/07/28 02:24:32;;;;;;;26.60;15.43;;;;;;;14.96;91.21;101015.47;5048714;28;20029;-69
2021/07/28 02:26:58;;;;;;;25.92;15.73;;;;;;;14.96;91.45;101018.94;5049631;28;20037;-69
2021/07/28 02:29:23;;;;;;;25.77;15.65;;;;;;;14.96;91.54;101010.19;5049523;28;20082;-69
2021/07/28 02:31:48;;;;;;;26.92;14.90;;;;;;;14.97;91.31;101009.22;5049715;28;20442;-69
2021/07/28 02:34:14;;;;;;;26.77;16.35;;;;;;;14.96;91.56;101018.94;5049040;28;20032;-69
2021/07/28 02:36:39;;;;;;;30.98;15.93;;;;;;;14.96;91.72;101013.66;5048680;28;20040;-69
2021/07/28 02:39:04;;;;;;;28.13;16.27;;;;;;;14.96;91.44;101011.03;5038536;28;20138;-68
2021/07/28 02:41:29;;;;;;;26.30;15.27;;;;;;;14.98;91.43;101016.22;5042316;28;20083;-70
2021/07/28 02:43:55;;;;;;;26.52;15.35;;;;;;;15.03;91.53;101016.00;5027793;28;20163;-70
2021/07/28 02:46:21;;;;;;;24.35;15.20;;;;;;;15.07;91.83;101014.94;5029289;28;20037;-69
2021/07/28 02:48:47;;;;;;;27.70;15.07;;;;;;;15.10;91.24;101005.06;5049770;28;20031;-69
2021/07/28 02:51:13;;;;;;;24.27;15.32;;;;;;;15.10;91.53;101006.88;5037511;28;20032;-69
2021/07/28 02:53:38;;;;;;;26.73;16.23;;;;;;;15.10;91.47;101006.88;5046046;28;20029;-70
2021/07/28 02:56:03;;;;;;;25.42;16.05;;;;;;;15.06;91.63;101008.81;5049054;28;20040;-69
2021/07/28 02:58:29;;;;;;;26.73;16.67;;;;;;;15.05;91.75;101009.72;5046186;28;20383;-70
2021/07/28 03:00:54;;;;;;;29.13;17.40;;;;;;;15.10;91.93;101009.50;5036002;28;20029;-69
2021/07/28 03:03:19;;;;;;;27.15;16.35;;;;;;;15.14;91.80;101013.69;5048967;28;20032;-69
2021/07/28 03:05:45;;;;;;;25.38;16.10;;;;;;;15.15;91.93;101010.97;5034679;28;20025;-69
2021/07/28 03:08:10;;;;;;;28.67;15.80;;;;;;;15.15;91.70;101005.69;5045099;28;20025;-69
2021/07/28 03:10:35;;;;;;;28.95;17.45;;;;;;;15.17;92.00;101013.56;5032795;28;20013;-69
2021/07/28 03:13:01;;;;;;;32.45;17.80;;;;;;;15.20;91.96;101008.13;5035489;28;20501;-70
2021/07/28 03:15:26;;;;;;;29.90;17.00;;;;;;;15.25;92.03;101010.53;5042371;28;20025;-69
2021/07/28 03:17:51;;;;;;;25.60;16.40;;;;;;;15.27;91.76;101008.66;5048273;28;20377;-68
2021/07/28 03:20:17;;;;;;;26.45;16.08;;;;;;;15.25;91.48;101002.59;5049728;28;20021;-68
2021/07/28 03:22:42;;;;;;;27.85;17.23;;;;;;;15.20;91.83;101008.13;5049363;28;20104;-69
2021/07/28 03:25:08;;;;;;;28.17;16.30;;;;;;;15.23;91.90;101005.34;5050267;28;20602;-68
2021/07/28 03:27:33;;;;;;;28.83;17.77;;;;;;;15.22;92.01;101008.91;5047595;28;20040;-68
2021/07/28 03:29:58;;;;;;;30.73;17.45;;;;;;;15.25;91.87;101008.72;5046128;28;20055;-68
2021/07/28 03:32:24;;;;;;;36.05;17.88;;;;;;;15.27;92.06;101006.00;5041352;28;20104;-68
2021/07/28 03:34:49;;;;;;;27.45;17.00;;;;;;;15.26;91.67;100997.25;5044279;28;20032;-70
2021/07/28 03:37:14;;;;;;;26.63;16.95;;;;;;;15.27;91.46;101006.00;5034321;28;20025;-68
2021/07/28 03:39:40;;;;;;;25.30;17.02;;;;;;;15.30;91.79;100996.13;5036231;28;20029;-68
2021/07/28 03:42:06;;;;;;;26.38;16.80;;;;;;;15.26;91.68;100994.59;5047270;28;20096;-69
2021/07/28 03:44:32;;;;;;;25.95;16.73;;;;;;;15.26;91.15;101002.53;5048491;28;20108;-69
2021/07/28 03:46:57;;;;;;;27.27;17.95;;;;;;;15.26;91.27;100999.03;5030702;28;20128;-69
2021/07/28 03:49:23;;;;;;;24.50;16.98;;;;;;;15.25;91.57;100995.53;5044133;28;20112;-69
2021/07/28 03:51:48;;;;;;;25.88;17.38;;;;;;;15.26;91.75;100997.25;5033207;28;20318;-69
2021/07/28 03:54:13;;;;;;;27.88;16.30;;;;;;;15.32;91.81;100991.66;5035624;28;20024;-68
2021/07/28 03:56:39;;;;;;;22.20;15.45;;;;;;;15.33;90.79;100998.66;5035067;28;20018;-69
2021/07/28 03:59:04;;;;;;;20.25;14.32;;;;;;;15.36;90.69;100996.78;5031620;28;20029;-69
2021/07/28 04:01:29;;;;;;;23.70;15.77;;;;;;;15.37;90.21;100998.47;5036053;28;20087;-69
2021/07/28 04:03:55;;;;;;;22.85;15.60;;;;;;;15.37;90.39;100998.47;5044422;28;20359;-69
2021/07/28 04:06:20;;;;;;;20.30;14.15;;;;;;;15.36;90.12;100999.44;5048010;28;20481;-69
2021/07/28 04:08:45;;;;;;;26.83;15.32;;;;;;;15.35;90.40;100995.91;5046805;28;20120;-69
2021/07/28 04:11:11;;;;;;;22.30;14.70;;;;;;;15.32;89.93;100996.94;5047400;28;20203;-69
2021/07/28 04:13:38;;;;;;;19.90;13.80;;;;;;;15.33;90.36;100995.13;5035993;28;20027;-69
2021/07/28 04:16:04;;;;;;;20.60;15.05;;;;;;;15.30;90.14;100995.28;5032215;28;20009;-69
2021/07/28 04:18:29;;;;;;;25.48;14.93;;;;;;;15.26;90.88;100991.94;5047789;28;20051;-69
2021/07/28 04:20:55;;;;;;;20.48;14.35;;;;;;;15.33;90.67;100997.78;5032493;28;20108;-69
2021/07/28 04:23:20;;;;;;;24.30;15.15;;;;;;;15.35;90.92;100989.78;5046789;28;20033;-69
2021/07/28 04:25:46;;;;;;;24.67;13.77;;;;;;;15.41;90.57;100997.41;5037898;28;20059;-68
2021/07/28 04:28:11;;;;;;;24.90;14.18;;;;;;;15.45;90.05;101001.59;5042555;28;20083;-68
2021/07/28 04:30:37;;;;;;;20.30;13.60;;;;;;;15.47;89.85;100991.81;5030231;28;20104;-69
2021/07/28 04:33:02;;;;;;;22.58;14.13;;;;;;;15.50;89.81;101002.22;5043969;28;20113;-70
2021/07/28 04:35:27;;;;;;;20.38;13.07;;;;;;;15.52;89.72;100997.72;5029892;28;20104;-70
2021/07/28 04:37:53;;;;;;;21.95;14.30;;;;;;;15.46;89.73;100993.56;5042292;28;20051;-70
2021/07/28 04:40:18;;;;;;;19.15;13.23;;;;;;;15.48;90.08;100999.66;5038424;28;20067;-69
2021/07/28 04:42:43;;;;;;;23.45;14.38;;;;;;;15.49;90.15;101003.13;5036082;28;20029;-69
2021/07/28 04:45:09;;;;;;;19.17;12.98;;;;;;;15.53;89.77;101003.84;5027336;28;20058;-68
2021/07/28 04:47:35;;;;;;;21.23;13.23;;;;;;;15.54;89.69;101009.06;5037800;28;20704;-69
2021/07/28 04:50:00;;;;;;;19.08;13.43;;;;;;;15.54;89.86;101006.44;5034097;28;20383;-69
2021/07/28 04:52:26;;;;;;;22.65;12.77;;;;;;;15.61;89.88;101001.66;5038769;28;20116;-69
2021/07/28 04:54:52;;;;;;;16.45;12.23;;;;;;;15.70;88.96;100989.75;5041568;28;20024;-69
2021/07/28 04:57:17;;;;;;;20.88;12.98;;;;;;;15.69;89.10;100995.97;5041153;28;20421;-69
2021/07/28 04:59:43;;;;;;;17.17;12.43;;;;;;;15.72;88.84;100991.38;5030034;28;20086;-69
2021/07/28 05:02:08;;;;;;;17.38;11.55;;;;;;;15.76;88.77;100998.22;5026615;28;20513;-69
2021/07/28 05:04:33;;;;;;;16.60;11.30;;;;;;;15.82;88.38;100997.94;5027020;28;20300;-69
2021/07/28 05:06:59;;;;;;;14.40;10.07;;;;;;;15.91;87.17;100988.66;5038343;28;20031;-70
2021/07/28 05:09:24;;;;;;;16.95;10.90;;;;;;;15.93;87.60;100992.09;5027114;28;20393;-69
2021/07/28 05:11:49;;;;;;;16.17;9.77;;;;;;;15.96;87.32;100997.22;5036546;28;20029;-69
2021/07/28 05:14:15;;;;;;;15.35;9.98;;;;;;;15.95;87.05;101003.44;5041190;28;20148;-69
2021/07/28 05:16:40;;;;;;;14.82;10.00;;;;;;;15.98;86.90;100990.03;5027516;28;20045;-69
2021/07/28 05:19:05;;;;;;;17.77;9.00;;;;;;;16.02;86.06;100998.66;5039465;28;20021;-68
2021/07/28 05:21:31;;;;;;;12.00;8.40;;;;;;;16.04;85.70;100994.16;5029419;28;20034;-69
2021/07/28 05:23:56;;;;;;;16.08;7.93;;;;;;;16.04;85.14;100985.34;5026215;28;20025;-69
2021/07/28 05:26:21;;;;;;;13.02;7.32;;;;;;;16.09;84.87;100991.28;5034246;28;20021;-69
2021/07/28 05:28:47;;;;;;;13.88;8.07;;;;;;;16.14;84.76;100989.22;5018346;28;20112;-68
2021/07/28 05:31:13;;;;;;;15.93;6.20;;;;;;;16.16;83.53;100987.34;5040698;28;20021;-68
2021/07/28 05:33:39;;;;;;;14.73;6.60;;;;;;;16.11;83.55;100990.25;5026582;28;20083;-70
2021/07/28 05:36:04;;;;;;;10.60;5.90;;;;;;;16.16;83.23;100986.50;5035164;28;20121;-68
2021/07/28 05:38:29;;;;;;;12.40;6.90;;;;;;;16.19;83.20;100984.53;5026729;28;20063;-68
2021/07/28 05:40:55;;;;;;;17.08;6.72;;;;;;;16.20;82.94;100986.25;5036599;28;20072;-69
2021/07/28 05:43:23;;;;;;;11.23;6.82;;;;;;;16.23;83.27;100983.44;5040975;28;20048;-69
2021/07/28 05:45:51;;;;;;;16.10;7.40;;;;;;;16.23;83.25;100977.28;5027963;28;20027;-70
2021/07/28 05:48:17;;;;;;;11.45;7.88;;;;;;;16.26;82.96;100982.41;5043434;28;20025;-69
2021/07/28 05:50:42;;;;;;;14.23;7.20;;;;;;;16.41;82.70;100986.00;5025860;28;20025;-69
2021/07/28 05:53:07;;;;;;;13.65;8.00;;;;;;;16.55;82.48;100983.44;5039985;28;20057;-70
2021/07/28 05:55:33;;;;;;;12.25;7.70;;;;;;;16.61;81.45;100985.75;5026875;28;20083;-69
2021/07/28 05:57:59;;;;;;;13.93;7.55;;;;;;;16.69;82.12;100985.31;5022968;28;20021;-69
2021/07/28 06:00:24;;;;;;;12.68;7.53;;;;;;;16.77;81.27;100985.75;5025483;28;20053;-69
2021/07/28 06:02:50;;;;;;;15.48;6.75;;;;;;;16.78;81.45;100983.94;5032286;28;20060;-69
2021/07/28 06:05:15;;;;;;;11.05;6.55;;;;;;;16.80;80.01;100987.38;5032691;28;20033;-69
2021/07/28 06:07:40;;;;;;;13.63;6.70;;;;;;;16.78;81.36;100978.66;5026998;28;20031;-69
2021/07/28 06:10:07;;;;;;;11.88;6.07;;;;;;;16.81;80.50;100978.50;5026628;28;20025;-68
2021/07/28 06:12:32;;;;;;;13.18;6.45;;;;;;;16.88;81.09;100973.69;5029894;28;20021;-68
2021/07/28 06:14:57;;;;;;;12.45;5.75;;;;;;;16.86;79.93;100965.84;5031526;28;20026;-69
2021/07/28 06:17:22;;;;;;;13.63;6.15;;;;;;;16.81;80.57;100974.97;5031393;28;20100;-68
2021/07/28 06:19:48;;;;;;;11.07;5.63;;;;;;;16.77;81.75;100972.50;5031496;28;20494;-68
2021/07/28 06:22:13;;;;;;;17.38;5.68;;;;;;;16.72;80.53;100973.69;5031505;28;20596;-68
2021/07/28 06:24:38;;;;;;;9.85;5.15;;;;;;;16.74;81.06;100979.78;5031573;28;20035;-68
2021/07/28 06:27:04;;;;;;;12.93;5.93;;;;;;;16.63;80.99;100972.44;5038260;28;20053;-68
2021/07/28 06:29:29;;;;;;;15.40;6.18;;;;;;;16.66;81.14;100979.34;5041264;28;20429;-69
2021/07/28 06:31:55;;;;;;;13.23;6.00;;;;;;;16.54;81.36;100973.78;5042965;28;20025;-68
2021/07/28 06:34:20;;;;;;;12.07;5.70;;;;;;;16.51;81.80;100983.69;5038831;28;20048;-69
2021/07/28 06:36:46;;;;;;;13.75;5.68;;;;;;;16.55;81.47;100986.09;5028280;28;20096;-69
2021/07/28 06:39:11;;;;;;;11.13;5.68;;;;;;;16.41;81.21;100986.00;5040268;28;20021;-68
2021/07/28 06:41:37;;;;;;;14.75;5.60;;;;;;;16.43;81.71;100984.13;5033724;28;20029;-68
2021/07/28 06:44:02;;;;;;;11.75;5.68;;;;;;;16.41;81.60;100976.28;5031746;28;20069;-69
2021/07/28 06:46:27;;;;;;;14.13;5.95;;;;;;;16.41;81.90;100988.66;5029746;28;20043;-67
2021/07/28 06:48:53;;;;;;;12.93;5.78;;;;;;;16.43;81.67;100977.06;5043115;28;20044;-68
2021/07/28 06:51:18;;;;;;;15.52;6.18;;;;;;;16.44;81.46;100981.41;5035522;28;20031;-68
2021/07/28 06:53:44;;;;;;;13.57;5.65;;;;;;;16.50;81.22;100985.50;5047995;28;20025;-68
2021/07/28 06:56:11;;;;;;;12.75;5.90;;;;;;;16.54;81.40;100984.38;5035308;28;20021;-68
2021/07/28 06:58:36;;;;;;;14.93;6.03;;;;;;;16.58;81.43;100975.34;5042798;28;20327;-68
2021/07/28 07:01:03;;;;;;;10.77;5.60;;;;;;;16.67;80.86;100973.97;5039975;28;20052;-68
2021/07/28 07:03:28;;;;;;;16.85;5.63;;;;;;;16.72;81.47;100965.75;5031968;28;20029;-68
2021/07/28 07:05:53;;;;;;;11.85;5.70;;;;;;;16.87;80.54;100970.19;5033989;28;20500;-68
2021/07/28 07:08:18;;;;;;;16.77;6.50;;;;;;;16.86;79.92;100968.47;5041277;28;20075;-68
2021/07/28 07:10:44;;;;;;;10.00;5.70;;;;;;;17.00;79.45;100967.72;5042727;28;20089;-68
2021/07/28 07:13:09;;;;;;;13.18;5.68;;;;;;;17.08;80.28;100975.25;5044569;28;20017;-68
2021/07/28 07:15:34;;;;;;;14.30;5.95;;;;;;;17.14;79.34;100966.94;5036687;28;20040;-68
2021/07/28 07:18:00;;;;;;;11.77;6.00;;;;;;;17.09;79.58;100961.88;5032590;28;20488;-68
2021/07/28 07:20:25;;;;;;;15.07;5.53;;;;;;;17.02;79.82;100965.00;5038447;28;20017;-69
2021/07/28 07:22:50;;;;;;;14.68;5.93;;;;;;;17.05;79.89;100975.41;5029213;28;20398;-69
2021/07/28 07:25:16;;;;;;;13.90;5.13;;;;;;;17.16;79.44;100965.03;5040093;28;20021;-69
2021/07/28 07:27:42;;;;;;;13.45;5.47;;;;;;;17.16;79.00;100970.31;5028307;28;20371;-69
2021/07/28 07:30:08;;;;;;;13.60;5.18;;;;;;;17.33;78.46;100979.06;5042553;28;20026;-69
2021/07/28 07:32:34;;;;;;;14.38;5.25;;;;;;;17.38;78.29;100977.03;5027777;28;20242;-69
2021/07/28 07:35:00;;;;;;;13.32;5.47;;;;;;;17.43;78.36;100978.44;5041767;28;20025;-69
2021/07/28 07:37:26;;;;;;;11.90;5.78;;;;;;;17.29;77.46;100977.56;5029477;28;20025;-69
2021/07/28 07:39:51;;;;;;;11.55;5.45;;;;;;;17.27;77.64;100977.66;5039378;28;20508;-69
2021/07/28 07:42:16;;;;;;;11.43;5.50;;;;;;;17.32;77.84;100974.75;5042613;28;20545;-69
2021/07/28 07:44:45;;;;;;;14.18;5.25;;;;;;;17.43;77.71;100969.66;5040804;28;20048;-68
2021/07/28 07:47:11;;;;;;;13.15;5.70;;;;;;;17.40;78.03;100970.69;5038651;28;20031;-68
2021/07/28 07:49:37;;;;;;;14.40;5.25;;;;;;;17.45;76.75;100972.19;5042495;28;20394;-68
2021/07/28 07:52:02;;;;;;;12.73;5.10;;;;;;;17.38;77.48;100967.25;5031159;28;20382;-68
2021/07/28 07:54:28;;;;;;;13.85;5.15;;;;;;;17.36;77.38;100978.91;5030373;28;20401;-68
2021/07/28 07:56:53;;;;;;;11.80;5.20;;;;;;;17.37;77.01;100970.00;5043662;28;20096;-68
2021/07/28 07:59:19;;;;;;;14.02;5.05;;;;;;;17.24;77.56;100975.16;5029206;28;20091;-68
2021/07/28 08:01:44;;;;;;;11.90;5.20;;;;;;;17.26;77.35;100976.78;5044807;28;20477;-68
2021/07/28 08:04:10;;;;;;;14.98;4.88;;;;;;;17.17;76.82;100985.28;5049292;28;20371;-68
2021/07/28 08:06:35;;;;;;;15.18;5.38;;;;;;;17.11;77.54;100972.41;5033074;28;20021;-68
2021/07/28 08:09:00;;;;;;;11.40;5.47;;;;;;;17.08;77.77;100977.88;5041239;28;20048;-68
2021/07/28 08:11:26;;;;;;;18.75;5.57;;;;;;;17.06;77.51;100972.66;5034730;28;20057;-68
2021/07/28 08:13:51;;;;;;;13.93;5.70;;;;;;;17.04;77.77;100987.81;5042592;28;20045;-68
2021/07/28 08:16:19;;;;;;;14.32;5.50;;;;;;;16.98;78.34;100979.34;5028064;28;20457;-69
2021/07/28 08:18:48;;;;;;;16.90;5.47;;;;;;;17.03;78.25;100987.88;5030727;28;20020;-68
2021/07/28 08:21:14;;;;;;;14.68;5.55;;;;;;;17.06;77.69;100977.09;5052162;28;20116;-68
2021/07/28 08:23:41;;;;;;;10.80;4.68;;;;;;;17.15;77.31;100981.84;5047396;28;20103;-68
2021/07/28 08:26:06;;;;;;;10.80;5.30;;;;;;;17.02;77.29;100976.44;5048956;28;22327;-68
2021/07/28 08:28:32;;;;;;;11.82;5.70;;;;;;;17.04;77.26;100982.50;5048783;28;20048;-68
2021/07/28 08:30:57;;;;;;;12.27;4.85;;;;;;;17.14;76.74;100984.59;5048866;28;20032;-68
2021/07/28 08:33:27;;;;;;;17.95;5.53;;;;;;;17.06;77.60;100980.59;5048576;28;20032;-70
2021/07/28 08:35:56;;;;;;;14.00;5.45;;;;;;;17.08;77.88;100985.84;5049295;28;20389;-69
2021/07/28 08:38:22;;;;;;;15.30;5.55;;;;;;;17.13;77.49;100991.72;5031398;28;20036;-69
2021/07/28 08:40:49;;;;;;;14.65;5.28;;;;;;;17.32;77.04;100993.28;5049273;28;20041;-69
2021/07/28 08:43:16;;;;;;;12.25;5.10;;;;;;;17.55;75.35;100983.94;5047224;28;20373;-69
2021/07/28 08:45:46;;;;;;;11.95;5.60;;;;;;;17.67;75.28;100985.03;5048655;28;20100;-68
2021/07/28 08:48:11;;;;;;;14.07;5.75;;;;;;;17.79;75.41;100986.09;5048119;28;20451;-69
2021/07/28 08:50:36;;;;;;;9.70;4.78;;;;;;;17.94;74.49;100990.47;5048314;28;20064;-68
2021/07/28 08:53:03;;;;;;;11.88;5.13;;;;;;;18.09;74.27;100986.00;5048359;28;20104;-69
2021/07/28 08:55:29;;;;;;;12.75;5.13;;;;;;;18.02;72.90;100990.88;5030538;28;20036;-69
2021/07/28 08:57:54;;;;;;;17.95;6.22;;;;;;;17.67;73.87;100982.38;5048619;28;20021;-67
2021/07/28 09:00:19;;;;;;;13.82;5.30;;;;;;;17.65;74.62;100978.94;5047824;28;20029;-68
2021/07/28 09:02:46;;;;;;;9.02;4.97;;;;;;;17.64;75.48;100990.50;5049085;28;20025;-70
2021/07/28 09:05:11;;;;;;;11.98;5.50;;;;;;;17.72;74.70;100988.25;5048525;28;20484;-68
2021/07/28 09:07:38;;;;;;;12.73;5.30;;;;;;;17.79;74.19;100986.94;5047079;28;20032;-68
2021/07/28 09:10:04;;;;;;;12.40;5.05;;;;;;;17.84;74.51;100984.00;5048038;28;20136;-69
2021/07/28 09:12:34;;;;;;;13.23;5.40;;;;;;;17.65;75.00;100986.91;5047960;28;20895;-69
2021/07/28 09:15:05;;;;;;;14.98;5.57;;;;;;;17.70;75.17;101003.38;5048002;28;20025;-69
2021/07/28 09:17:34;;;;;;;21.63;5.53;;;;;;;17.75;74.77;100994.22;5030880;28;20062;-70
2021/07/28 09:19:59;;;;;;;14.23;5.07;;;;;;;17.77;74.37;100980.84;5047920;28;20061;-68
2021/07/28 09:22:38;;;;;;;14.18;5.30;;;;;;;18.03;74.24;100979.28;5040046;28;20071;-69
2021/07/28 09:25:31;;;;;;;13.43;4.65;;;;;;;18.01;73.31;100991.81;5037863;28;20083;-69
2021/07/28 09:27:56;;;;;;;14.60;5.97;;;;;;;17.75;74.50;100985.41;5034630;28;20026;-69
2021/07/28 09:30:24;;;;;;;13.50;5.63;;;;;;;17.82;74.28;100992.03;5032557;28;20025;-67
2021/07/28 09:33:04;;;;;;;15.07;5.40;;;;;;;17.73;74.50;100988.16;5028361;28;20029;-69
2021/07/28 09:35:47;;;;;;;12.63;5.60;;;;;;;17.71;74.19;100995.38;5029647;28;20379;-68
2021/07/28 09:38:42;;;;;;;14.65;5.35;;;;;;;17.92;73.40;100984.38;5028234;28;20025;-68
2021/07/28 09:41:19;;;;;;;14.27;5.00;;;;;;;17.89;73.43;100989.88;5029948;28;20024;-68
2021/07/28 09:43:52;;;;;;;13.27;4.90;;;;;;;17.98;73.40;100985.84;5026700;28;20036;-68
2021/07/28 09:46:25;;;;;;;12.90;5.05;;;;;;;18.10;72.53;100990.38;5027079;28;20026;-68
2021/07/28 09:48:50;;;;;;;17.25;4.68;;;;;;;18.35;71.25;100975.56;5030649;28;20040;-69
2021/07/28 09:51:33;;;;;;;11.88;4.57;;;;;;;18.55;70.75;100992.88;5031723;28;20025;-69
2021/07/28 09:54:07;;;;;;;10.50;4.67;;;;;;;18.52;70.55;100985.97;5030809;28;20472;-69
2021/07/28 09:56:50;;;;;;;18.25;4.97;;;;;;;18.68;69.07;100982.28;5032571;28;20033;-69
2021/07/28 09:59:16;;;;;;;11.90;5.07;;;;;;;19.00;69.05;100982.91;5043854;28;20099;-69
2021/07/28 10:01:43;;;;;;;18.63;5.55;;;;;;;19.06;68.81;100989.59;5051168;28;20414;-68
2021/07/28 10:04:10;;;;;;;12.90;5.18;;;;;;;19.06;69.04;100991.41;5032048;28;20106;-69
2021/07/28 10:06:46;;;;;;;14.60;5.00;;;;;;;18.97;68.55;100984.91;5033013;28;20025;-69
2021/07/28 10:09:14;;;;;;;14.82;5.22;;;;;;;18.97;68.98;100985.75;5037111;28;20431;-69
2021/07/28 10:11:40;;;;;;;8.85;4.32;;;;;;;19.04;68.37;101002.16;5032600;28;20028;-69
2021/07/28 10:14:07;;;;;;;11.30;4.50;;;;;;;18.75;69.11;100985.44;5049687;28;20017;-68
2021/07/28 10:16:32;;;;;;;15.38;5.18;;;;;;;18.81;69.95;100993.84;5029365;28;20025;-68
2021/07/28 10:18:59;;;;;;;13.85;4.25;;;;;;;19.19;68.26;100984.34;5031219;28;20043;-68
2021/07/28 10:21:25;;;;;;;13.50;5.10;;;;;;;19.82;65.76;100988.00;5030668;28;20035;-69
2021/07/28 10:23:51;;;;;;;17.40;4.68;;;;;;;20.34;64.97;100979.97;5029529;28;20021;-68
2021/07/28 10:26:18;;;;;;;14.23;4.10;;;;;;;20.63;62.78;100975.19;5030912;28;20061;-69
2021/07/28 10:28:46;;;;;;;15.00;4.30;;;;;;;20.44;64.24;100973.03;5031028;28;20435;-68
2021/07/28 10:31:20;;;;;;;7.80;3.83;;;;;;;20.63;63.60;100982.34;5029273;28;20026;-68
2021/07/28 10:33:56;;;;;;;10.75;4.18;;;;;;;20.63;61.99;100979.69;5031962;28;20055;-69
2021/07/28 10:36:47;;;;;;;10.90;4.50;;;;;;;20.18;63.72;100984.69;5048768;28;20363;-69
2021/07/28 10:39:33;;;;;;;11.40;3.95;;;;;;;20.07;64.39;100975.66;5043257;28;20052;-68
2021/07/28 10:41:59;;;;;;;14.15;4.25;;;;;;;20.12;64.23;100970.03;5030707;28;20124;-68
2021/07/28 10:47:43;;;;;;;11.80;4.32;;;;;;;20.06;64.43;100975.78;5008411;28;20042;-68
2021/07/28 10:50:29;;;;;;;11.88;4.35;;;;;;;19.73;65.17;100975.31;5010886;28;20029;-70
2021/07/28 10:52:55;;;;;;;12.23;4.35;;;;;;;19.60;65.83;101003.75;5030011;28;20033;-68
2021/07/28 10:55:36;;;;;;;9.82;3.92;;;;;;;19.64;65.54;100982.13;5030105;28;20025;-69
2021/07/28 10:58:11;;;;;;;12.20;4.00;;;;;;;19.76;65.70;100995.56;5012307;28;20029;-68
2021/07/28 11:00:36;;;;;;;10.38;4.32;;;;;;;19.72;65.55;100981.63;5009828;28;20133;-68
2021/07/28 11:03:02;;;;;;;9.52;3.75;;;;;;;19.58;65.65;100981.72;5009119;28;20116;-68
2021/07/28 11:05:29;;;;;;;13.02;4.15;;;;;;;19.31;66.78;100993.28;5003577;28;20068;-69
2021/07/28 11:08:07;;;;;;;13.55;3.95;;;;;;;19.32;67.72;100989.66;5003794;28;20053;-68
2021/07/28 11:10:40;;;;;;;8.55;3.53;;;;;;;19.61;66.43;100997.47;5007429;28;20034;-68
2021/07/28 11:13:13;;;;;;;12.20;3.75;;;;;;;19.96;65.88;100988.91;5010610;28;20034;-69
2021/07/28 11:15:40;;;;;;;15.13;4.33;;;;;;;20.23;64.00;100994.06;5006676;28;20080;-68
2021/07/28 11:18:06;;;;;;;14.15;4.20;;;;;;;19.81;64.59;100988.97;5016408;28;20025;-68